sensor_id;sensor_type;location;lat;lon;timestamp;P1;durP1;ratioP1;P2;durP2;ratioP2
13406;SDS011;6774;48.208;10.766;2022-08-19T00:01:41;6.00;;;5.60;;
13406;SDS011;6774;48.208;10.766;2022-08-19T00:04:19;4.37;;;4.17;;
13406;SDS011;6774;48.208;10.766;2022-08-19T00:06:51;6.57;;;6.10;;
13406;SDS011;6774;48.208;10.766;2022-08-19T00:09:20;6.20;;;5.80;;
13406;SDS011;6774;48.208;10.766;2022-08-19T00:11:49;6.93;;;6.53;;
13406;SDS011;6774;48.208;10.766;2022-08-19T00:14:18;5.67;;;5.37;;
13406;SDS011;6774;48.208;10.766;2022-08-19T00:16:47;5.17;;;4.87;;
13406;SDS011;6774;48.208;10.766;2022-08-19T00:19:17;5.17;;;4.87;;
13406;SDS011;6774;48.208;10.766;2022-08-19T00:21:46;5.83;;;5.33;;
13406;SDS011;6774;48.208;10.766;2022-08-19T00:24:15;5.60;;;5.30;;
13406;SDS011;6774;48.208;10.766;2022-08-19T00:26:44;5.83;;;5.53;;
13406;SDS011;6774;48.208;10.766;2022-08-19T00:29:13;6.83;;;6.43;;
13406;SDS011;6774;48.208;10.766;2022-08-19T00:31:42;5.70;;;5.20;;
13406;SDS011;6774;48.208;10.766;2022-08-19T00:34:11;5.50;;;5.20;;
13406;SDS011;6774;48.208;10.766;2022-08-19T00:36:40;4.67;;;4.47;;
13406;SDS011;6774;48.208;10.766;2022-08-19T00:39:09;5.30;;;5.03;;
13406;SDS011;6774;48.208;10.766;2022-08-19T00:41:39;6.27;;;5.87;;
13406;SDS011;6774;48.208;10.766;2022-08-19T00:44:08;5.67;;;5.37;;
13406;SDS011;6774;48.208;10.766;2022-08-19T00:46:41;5.37;;;5.13;;
13406;SDS011;6774;48.208;10.766;2022-08-19T00:49:25;5.13;;;4.83;;
13406;SDS011;6774;48.208;10.766;2022-08-19T00:52:03;4.67;;;4.37;;
13406;SDS011;6774;48.208;10.766;2022-08-19T00:54:35;7.20;;;6.77;;
13406;SDS011;6774;48.208;10.766;2022-08-19T00:57:07;6.40;;;6.00;;
13406;SDS011;6774;48.208;10.766;2022-08-19T00:59:39;5.27;;;4.97;;
13406;SDS011;6774;48.208;10.766;2022-08-19T01:02:28;6.50;;;6.10;;
13406;SDS011;6774;48.208;10.766;2022-08-19T01:04:57;6.10;;;5.70;;
13406;SDS011;6774;48.208;10.766;2022-08-19T01:07:27;7.87;;;7.30;;
13406;SDS011;6774;48.208;10.766;2022-08-19T01:10:04;6.77;;;6.17;;
13406;SDS011;6774;48.208;10.766;2022-08-19T01:12:36;5.93;;;5.63;;
13406;SDS011;6774;48.208;10.766;2022-08-19T01:15:05;7.57;;;7.17;;
13406;SDS011;6774;48.208;10.766;2022-08-19T01:17:33;7.17;;;6.77;;
13406;SDS011;6774;48.208;10.766;2022-08-19T01:20:03;6.77;;;6.30;;
13406;SDS011;6774;48.208;10.766;2022-08-19T01:22:32;5.97;;;5.67;;
13406;SDS011;6774;48.208;10.766;2022-08-19T01:25:07;8.23;;;7.73;;
13406;SDS011;6774;48.208;10.766;2022-08-19T01:27:41;8.33;;;7.80;;
13406;SDS011;6774;48.208;10.766;2022-08-19T01:30:12;7.33;;;6.93;;
13406;SDS011;6774;48.208;10.766;2022-08-19T01:32:43;8.97;;;8.47;;
13406;SDS011;6774;48.208;10.766;2022-08-19T01:35:12;8.03;;;7.53;;
13406;SDS011;6774;48.208;10.766;2022-08-19T01:37:46;8.03;;;7.53;;
13406;SDS011;6774;48.208;10.766;2022-08-19T01:40:17;8.07;;;7.57;;
13406;SDS011;6774;48.208;10.766;2022-08-19T01:42:47;8.07;;;7.57;;
13406;SDS011;6774;48.208;10.766;2022-08-19T01:45:15;10.77;;;10.07;;
13406;SDS011;6774;48.208;10.766;2022-08-19T01:47:44;9.83;;;9.23;;
13406;SDS011;6774;48.208;10.766;2022-08-19T01:50:28;9.50;;;8.90;;
13406;SDS011;6774;48.208;10.766;2022-08-19T01:52:59;8.97;;;8.37;;
13406;SDS011;6774;48.208;10.766;2022-08-19T01:55:33;9.17;;;8.67;;
13406;SDS011;6774;48.208;10.766;2022-08-19T01:58:08;8.83;;;8.30;;
13406;SDS011;6774;48.208;10.766;2022-08-19T02:00:39;8.87;;;8.17;;
13406;SDS011;6774;48.208;10.766;2022-08-19T02:03:08;8.77;;;8.17;;
13406;SDS011;6774;48.208;10.766;2022-08-19T02:05:37;9.93;;;9.30;;
13406;SDS011;6774;48.208;10.766;2022-08-19T02:08:07;9.00;;;8.50;;
13406;SDS011;6774;48.208;10.766;2022-08-19T02:10:37;9.63;;;9.03;;
13406;SDS011;6774;48.208;10.766;2022-08-19T02:13:07;10.23;;;9.53;;
13406;SDS011;6774;48.208;10.766;2022-08-19T02:15:36;9.40;;;8.80;;
13406;SDS011;6774;48.208;10.766;2022-08-19T02:18:04;12.80;;;11.80;;
13406;SDS011;6774;48.208;10.766;2022-08-19T02:20:34;12.10;;;11.30;;
13406;SDS011;6774;48.208;10.766;2022-08-19T02:23:02;12.60;;;11.77;;
13406;SDS011;6774;48.208;10.766;2022-08-19T02:25:40;12.53;;;11.70;;
13406;SDS011;6774;48.208;10.766;2022-08-19T02:28:08;13.10;;;12.20;;
13406;SDS011;6774;48.208;10.766;2022-08-19T02:30:41;15.13;;;14.03;;
13406;SDS011;6774;48.208;10.766;2022-08-19T02:33:09;12.67;;;11.73;;
13406;SDS011;6774;48.208;10.766;2022-08-19T02:35:40;12.47;;;11.63;;
13406;SDS011;6774;48.208;10.766;2022-08-19T02:38:08;13.27;;;12.37;;
13406;SDS011;6774;48.208;10.766;2022-08-19T02:40:57;11.97;;;11.07;;
13406;SDS011;6774;48.208;10.766;2022-08-19T02:43:28;12.67;;;11.77;;
13406;SDS011;6774;48.208;10.766;2022-08-19T02:46:00;13.63;;;12.63;;
13406;SDS011;6774;48.208;10.766;2022-08-19T02:48:28;12.03;;;11.13;;
13406;SDS011;6774;48.208;10.766;2022-08-19T02:50:56;11.03;;;10.33;;
13406;SDS011;6774;48.208;10.766;2022-08-19T02:53:25;12.03;;;11.20;;
13406;SDS011;6774;48.208;10.766;2022-08-19T02:55:56;11.60;;;10.90;;
13406;SDS011;6774;48.208;10.766;2022-08-19T02:58:24;12.93;;;12.03;;
13406;SDS011;6774;48.208;10.766;2022-08-19T03:00:54;9.27;;;8.73;;
13406;SDS011;6774;48.208;10.766;2022-08-19T03:03:23;10.60;;;9.90;;
13406;SDS011;6774;48.208;10.766;2022-08-19T03:05:51;11.17;;;10.47;;
13406;SDS011;6774;48.208;10.766;2022-08-19T03:08:22;12.30;;;11.43;;
13406;SDS011;6774;48.208;10.766;2022-08-19T03:10:52;13.10;;;12.17;;
13406;SDS011;6774;48.208;10.766;2022-08-19T03:13:21;12.40;;;11.57;;
13406;SDS011;6774;48.208;10.766;2022-08-19T03:15:49;12.70;;;11.67;;
13406;SDS011;6774;48.208;10.766;2022-08-19T03:18:18;14.23;;;13.13;;
13406;SDS011;6774;48.208;10.766;2022-08-19T03:20:49;16.63;;;15.23;;
13406;SDS011;6774;48.208;10.766;2022-08-19T03:23:21;15.80;;;14.63;;
13406;SDS011;6774;48.208;10.766;2022-08-19T03:25:50;13.80;;;12.70;;
13406;SDS011;6774;48.208;10.766;2022-08-19T03:28:32;14.70;;;13.50;;
13406;SDS011;6774;48.208;10.766;2022-08-19T03:31:02;16.07;;;14.67;;
13406;SDS011;6774;48.208;10.766;2022-08-19T03:33:52;15.80;;;14.57;;
13406;SDS011;6774;48.208;10.766;2022-08-19T03:36:21;16.00;;;14.33;;
13406;SDS011;6774;48.208;10.766;2022-08-19T03:38:54;15.63;;;14.43;;
13406;SDS011;6774;48.208;10.766;2022-08-19T03:41:25;14.80;;;13.70;;
13406;SDS011;6774;48.208;10.766;2022-08-19T03:44:11;17.53;;;16.17;;
13406;SDS011;6774;48.208;10.766;2022-08-19T03:46:44;17.63;;;16.00;;
13406;SDS011;6774;48.208;10.766;2022-08-19T03:49:13;18.17;;;16.50;;
13406;SDS011;6774;48.208;10.766;2022-08-19T03:51:44;16.43;;;15.30;;
13406;SDS011;6774;48.208;10.766;2022-08-19T03:54:14;17.07;;;15.43;;
13406;SDS011;6774;48.208;10.766;2022-08-19T03:56:44;18.00;;;16.60;;
13406;SDS011;6774;48.208;10.766;2022-08-19T03:59:16;17.70;;;16.30;;
13406;SDS011;6774;48.208;10.766;2022-08-19T04:01:46;21.97;;;20.00;;
13406;SDS011;6774;48.208;10.766;2022-08-19T04:04:14;22.17;;;20.37;;
13406;SDS011;6774;48.208;10.766;2022-08-19T04:06:45;22.33;;;20.47;;
13406;SDS011;6774;48.208;10.766;2022-08-19T04:09:14;22.60;;;20.50;;
13406;SDS011;6774;48.208;10.766;2022-08-19T04:11:43;24.57;;;21.93;;
13406;SDS011;6774;48.208;10.766;2022-08-19T04:14:15;25.13;;;22.90;;
13406;SDS011;6774;48.208;10.766;2022-08-19T04:16:45;22.10;;;20.10;;
13406;SDS011;6774;48.208;10.766;2022-08-19T04:19:14;21.70;;;19.70;;
13406;SDS011;6774;48.208;10.766;2022-08-19T04:21:43;24.07;;;21.70;;
13406;SDS011;6774;48.208;10.766;2022-08-19T04:24:13;20.27;;;18.57;;
13406;SDS011;6774;48.208;10.766;2022-08-19T04:26:41;23.37;;;21.20;;
13406;SDS011;6774;48.208;10.766;2022-08-19T04:29:11;22.27;;;20.30;;
13406;SDS011;6774;48.208;10.766;2022-08-19T04:31:42;23.67;;;21.57;;
13406;SDS011;6774;48.208;10.766;2022-08-19T04:34:12;20.70;;;18.90;;
13406;SDS011;6774;48.208;10.766;2022-08-19T04:36:43;19.67;;;17.93;;
13406;SDS011;6774;48.208;10.766;2022-08-19T04:39:13;22.50;;;20.57;;
13406;SDS011;6774;48.208;10.766;2022-08-19T04:41:43;19.30;;;17.70;;
13406;SDS011;6774;48.208;10.766;2022-08-19T04:44:29;18.67;;;17.10;;
13406;SDS011;6774;48.208;10.766;2022-08-19T04:47:02;17.23;;;15.83;;
13406;SDS011;6774;48.208;10.766;2022-08-19T04:49:37;18.00;;;16.50;;
13406;SDS011;6774;48.208;10.766;2022-08-19T04:52:05;14.97;;;13.87;;
13406;SDS011;6774;48.208;10.766;2022-08-19T04:54:33;17.40;;;15.87;;
13406;SDS011;6774;48.208;10.766;2022-08-19T04:57:05;18.30;;;16.80;;
13406;SDS011;6774;48.208;10.766;2022-08-19T04:59:36;15.70;;;14.40;;
13406;SDS011;6774;48.208;10.766;2022-08-19T05:02:06;14.23;;;13.13;;
13406;SDS011;6774;48.208;10.766;2022-08-19T05:04:34;15.20;;;13.90;;
13406;SDS011;6774;48.208;10.766;2022-08-19T05:07:05;20.30;;;18.70;;
13406;SDS011;6774;48.208;10.766;2022-08-19T05:09:34;22.27;;;20.30;;
13406;SDS011;6774;48.208;10.766;2022-08-19T05:12:22;20.27;;;18.23;;
13406;SDS011;6774;48.208;10.766;2022-08-19T05:14:55;22.13;;;20.23;;
13406;SDS011;6774;48.208;10.766;2022-08-19T05:17:25;20.17;;;18.67;;
13406;SDS011;6774;48.208;10.766;2022-08-19T05:19:59;21.03;;;19.00;;
13406;SDS011;6774;48.208;10.766;2022-08-19T05:22:46;18.70;;;17.20;;
13406;SDS011;6774;48.208;10.766;2022-08-19T05:25:16;19.20;;;17.70;;
13406;SDS011;6774;48.208;10.766;2022-08-19T05:27:46;21.27;;;19.40;;
13406;SDS011;6774;48.208;10.766;2022-08-19T05:30:15;22.87;;;20.90;;
13406;SDS011;6774;48.208;10.766;2022-08-19T05:33:06;17.60;;;16.20;;
13406;SDS011;6774;48.208;10.766;2022-08-19T05:35:36;21.10;;;19.37;;
13406;SDS011;6774;48.208;10.766;2022-08-19T05:38:06;21.67;;;19.70;;
13406;SDS011;6774;48.208;10.766;2022-08-19T05:40:34;19.53;;;17.47;;
13406;SDS011;6774;48.208;10.766;2022-08-19T05:43:04;21.33;;;19.43;;
13406;SDS011;6774;48.208;10.766;2022-08-19T05:45:37;22.37;;;20.40;;
13406;SDS011;6774;48.208;10.766;2022-08-19T05:48:09;18.43;;;16.93;;
13406;SDS011;6774;48.208;10.766;2022-08-19T05:50:39;21.73;;;20.03;;
13406;SDS011;6774;48.208;10.766;2022-08-19T05:53:08;23.53;;;21.47;;
13406;SDS011;6774;48.208;10.766;2022-08-19T05:55:36;21.10;;;18.97;;
13406;SDS011;6774;48.208;10.766;2022-08-19T05:58:06;17.83;;;16.27;;
13406;SDS011;6774;48.208;10.766;2022-08-19T06:00:34;18.37;;;16.87;;
13406;SDS011;6774;48.208;10.766;2022-08-19T06:03:03;18.93;;;17.33;;
13406;SDS011;6774;48.208;10.766;2022-08-19T06:05:40;19.63;;;18.03;;
13406;SDS011;6774;48.208;10.766;2022-08-19T06:08:17;17.47;;;15.87;;
13406;SDS011;6774;48.208;10.766;2022-08-19T06:11:11;16.07;;;14.77;;
13406;SDS011;6774;48.208;10.766;2022-08-19T06:13:39;18.70;;;17.20;;
13406;SDS011;6774;48.208;10.766;2022-08-19T06:16:07;20.13;;;18.63;;
13406;SDS011;6774;48.208;10.766;2022-08-19T06:18:35;15.10;;;13.87;;
13406;SDS011;6774;48.208;10.766;2022-08-19T06:21:05;18.03;;;16.43;;
13406;SDS011;6774;48.208;10.766;2022-08-19T06:23:32;16.63;;;14.80;;
13406;SDS011;6774;48.208;10.766;2022-08-19T06:26:01;16.77;;;15.47;;
13406;SDS011;6774;48.208;10.766;2022-08-19T06:28:28;15.63;;;14.43;;
13406;SDS011;6774;48.208;10.766;2022-08-19T06:30:56;13.57;;;12.57;;
13406;SDS011;6774;48.208;10.766;2022-08-19T06:33:24;15.67;;;14.30;;
13406;SDS011;6774;48.208;10.766;2022-08-19T06:35:52;15.90;;;14.60;;
13406;SDS011;6774;48.208;10.766;2022-08-19T06:38:21;12.97;;;11.97;;
13406;SDS011;6774;48.208;10.766;2022-08-19T06:40:49;12.83;;;11.70;;
13406;SDS011;6774;48.208;10.766;2022-08-19T06:43:17;15.43;;;14.03;;
13406;SDS011;6774;48.208;10.766;2022-08-19T06:45:45;12.53;;;11.63;;
13406;SDS011;6774;48.208;10.766;2022-08-19T06:48:14;13.70;;;12.53;;
13406;SDS011;6774;48.208;10.766;2022-08-19T06:50:43;15.17;;;14.00;;
13406;SDS011;6774;48.208;10.766;2022-08-19T06:53:11;14.10;;;13.03;;
13406;SDS011;6774;48.208;10.766;2022-08-19T06:55:41;15.50;;;14.30;;
13406;SDS011;6774;48.208;10.766;2022-08-19T06:58:09;15.60;;;14.30;;
13406;SDS011;6774;48.208;10.766;2022-08-19T07:00:37;15.57;;;14.20;;
13406;SDS011;6774;48.208;10.766;2022-08-19T07:03:06;16.40;;;15.00;;
13406;SDS011;6774;48.208;10.766;2022-08-19T07:05:39;17.70;;;15.87;;
13406;SDS011;6774;48.208;10.766;2022-08-19T07:08:11;13.10;;;12.10;;
13406;SDS011;6774;48.208;10.766;2022-08-19T07:10:43;19.03;;;17.37;;
13406;SDS011;6774;48.208;10.766;2022-08-19T07:13:12;14.77;;;13.67;;
13406;SDS011;6774;48.208;10.766;2022-08-19T07:15:39;16.53;;;14.97;;
13406;SDS011;6774;48.208;10.766;2022-08-19T07:18:08;16.93;;;15.67;;
13406;SDS011;6774;48.208;10.766;2022-08-19T07:20:37;17.30;;;15.90;;
13406;SDS011;6774;48.208;10.766;2022-08-19T07:23:07;18.67;;;17.00;;
13406;SDS011;6774;48.208;10.766;2022-08-19T07:25:37;16.57;;;15.17;;
13406;SDS011;6774;48.208;10.766;2022-08-19T07:28:07;16.30;;;14.80;;
13406;SDS011;6774;48.208;10.766;2022-08-19T07:30:50;17.70;;;16.27;;
13406;SDS011;6774;48.208;10.766;2022-08-19T07:33:19;15.97;;;14.57;;
13406;SDS011;6774;48.208;10.766;2022-08-19T07:35:47;19.10;;;17.43;;
13406;SDS011;6774;48.208;10.766;2022-08-19T07:38:16;17.13;;;15.60;;
13406;SDS011;6774;48.208;10.766;2022-08-19T07:40:44;17.30;;;15.80;;
13406;SDS011;6774;48.208;10.766;2022-08-19T07:43:14;18.07;;;16.50;;
13406;SDS011;6774;48.208;10.766;2022-08-19T07:45:43;13.40;;;12.40;;
13406;SDS011;6774;48.208;10.766;2022-08-19T07:48:11;18.33;;;16.67;;
13406;SDS011;6774;48.208;10.766;2022-08-19T07:50:40;19.77;;;18.13;;
13406;SDS011;6774;48.208;10.766;2022-08-19T07:53:08;21.30;;;19.37;;
13406;SDS011;6774;48.208;10.766;2022-08-19T07:55:36;20.60;;;18.70;;
13406;SDS011;6774;48.208;10.766;2022-08-19T07:58:10;21.37;;;19.23;;
13406;SDS011;6774;48.208;10.766;2022-08-19T08:00:40;24.10;;;21.93;;
13406;SDS011;6774;48.208;10.766;2022-08-19T08:03:08;23.40;;;21.07;;
13406;SDS011;6774;48.208;10.766;2022-08-19T08:05:36;25.20;;;22.67;;
13406;SDS011;6774;48.208;10.766;2022-08-19T08:08:22;26.10;;;23.00;;
13406;SDS011;6774;48.208;10.766;2022-08-19T08:11:13;28.17;;;25.30;;
13406;SDS011;6774;48.208;10.766;2022-08-19T08:13:45;28.23;;;25.43;;
13406;SDS011;6774;48.208;10.766;2022-08-19T08:16:32;29.00;;;26.20;;
13406;SDS011;6774;48.208;10.766;2022-08-19T08:19:05;22.73;;;20.63;;
13406;SDS011;6774;48.208;10.766;2022-08-19T08:21:48;26.33;;;23.70;;
13406;SDS011;6774;48.208;10.766;2022-08-19T08:24:17;32.90;;;27.50;;
13406;SDS011;6774;48.208;10.766;2022-08-19T08:26:46;26.40;;;23.77;;
13406;SDS011;6774;48.208;10.766;2022-08-19T08:29:22;27.07;;;21.67;;
13406;SDS011;6774;48.208;10.766;2022-08-19T08:31:53;26.10;;;23.53;;
13406;SDS011;6774;48.208;10.766;2022-08-19T08:34:25;24.93;;;22.57;;
13406;SDS011;6774;48.208;10.766;2022-08-19T08:36:53;19.97;;;18.07;;
13406;SDS011;6774;48.208;10.766;2022-08-19T08:39:21;22.67;;;20.30;;
13406;SDS011;6774;48.208;10.766;2022-08-19T08:41:50;22.50;;;20.40;;
13406;SDS011;6774;48.208;10.766;2022-08-19T08:44:25;19.70;;;17.87;;
13406;SDS011;6774;48.208;10.766;2022-08-19T08:47:03;18.97;;;17.27;;
13406;SDS011;6774;48.208;10.766;2022-08-19T08:49:40;20.90;;;18.83;;
13406;SDS011;6774;48.208;10.766;2022-08-19T08:52:11;20.40;;;18.33;;
13406;SDS011;6774;48.208;10.766;2022-08-19T08:54:43;19.37;;;17.50;;
13406;SDS011;6774;48.208;10.766;2022-08-19T08:57:23;21.37;;;18.57;;
13406;SDS011;6774;48.208;10.766;2022-08-19T09:00:08;18.40;;;16.80;;
13406;SDS011;6774;48.208;10.766;2022-08-19T09:02:42;17.47;;;15.87;;
13406;SDS011;6774;48.208;10.766;2022-08-19T09:05:16;17.37;;;15.87;;
13406;SDS011;6774;48.208;10.766;2022-08-19T09:07:50;14.63;;;13.43;;
13406;SDS011;6774;48.208;10.766;2022-08-19T09:10:28;15.43;;;14.27;;
13406;SDS011;6774;48.208;10.766;2022-08-19T09:13:03;14.03;;;12.73;;
13406;SDS011;6774;48.208;10.766;2022-08-19T09:15:39;22.00;;;14.93;;
13406;SDS011;6774;48.208;10.766;2022-08-19T09:18:15;14.13;;;12.97;;
13406;SDS011;6774;48.208;10.766;2022-08-19T09:20:45;15.67;;;14.30;;
13406;SDS011;6774;48.208;10.766;2022-08-19T09:23:14;16.73;;;15.27;;
13406;SDS011;6774;48.208;10.766;2022-08-19T09:25:43;11.57;;;10.77;;
13406;SDS011;6774;48.208;10.766;2022-08-19T09:28:11;9.50;;;8.87;;
13406;SDS011;6774;48.208;10.766;2022-08-19T09:30:47;8.23;;;7.73;;
13406;SDS011;6774;48.208;10.766;2022-08-19T09:33:19;9.23;;;8.50;;
13406;SDS011;6774;48.208;10.766;2022-08-19T09:35:47;10.63;;;9.83;;
13406;SDS011;6774;48.208;10.766;2022-08-19T09:38:19;7.57;;;6.77;;
13406;SDS011;6774;48.208;10.766;2022-08-19T09:40:47;11.93;;;10.97;;
13406;SDS011;6774;48.208;10.766;2022-08-19T09:43:16;11.33;;;10.33;;
13406;SDS011;6774;48.208;10.766;2022-08-19T09:45:59;9.60;;;8.87;;
13406;SDS011;6774;48.208;10.766;2022-08-19T09:48:28;11.63;;;10.77;;
13406;SDS011;6774;48.208;10.766;2022-08-19T09:51:01;10.73;;;9.80;;
13406;SDS011;6774;48.208;10.766;2022-08-19T09:53:30;13.73;;;12.43;;
13406;SDS011;6774;48.208;10.766;2022-08-19T09:55:59;11.43;;;10.53;;
13406;SDS011;6774;48.208;10.766;2022-08-19T09:58:29;12.17;;;10.97;;
13406;SDS011;6774;48.208;10.766;2022-08-19T10:00:57;10.83;;;9.83;;
13406;SDS011;6774;48.208;10.766;2022-08-19T10:03:29;10.13;;;9.43;;
13406;SDS011;6774;48.208;10.766;2022-08-19T10:06:00;11.13;;;10.33;;
13406;SDS011;6774;48.208;10.766;2022-08-19T10:08:40;8.70;;;7.90;;
13406;SDS011;6774;48.208;10.766;2022-08-19T10:11:16;8.03;;;7.47;;
13406;SDS011;6774;48.208;10.766;2022-08-19T10:14:04;7.73;;;7.10;;
13406;SDS011;6774;48.208;10.766;2022-08-19T10:16:33;6.10;;;5.77;;
13406;SDS011;6774;48.208;10.766;2022-08-19T10:19:06;7.40;;;6.67;;
13406;SDS011;6774;48.208;10.766;2022-08-19T10:21:35;7.43;;;6.77;;
13406;SDS011;6774;48.208;10.766;2022-08-19T10:24:05;7.43;;;6.90;;
13406;SDS011;6774;48.208;10.766;2022-08-19T10:26:36;5.60;;;5.30;;
13406;SDS011;6774;48.208;10.766;2022-08-19T10:29:05;4.50;;;4.10;;
13406;SDS011;6774;48.208;10.766;2022-08-19T10:31:35;5.73;;;5.23;;
13406;SDS011;6774;48.208;10.766;2022-08-19T10:34:25;4.50;;;4.20;;
13406;SDS011;6774;48.208;10.766;2022-08-19T10:36:54;5.10;;;4.73;;
13406;SDS011;6774;48.208;10.766;2022-08-19T10:39:27;5.77;;;5.13;;
13406;SDS011;6774;48.208;10.766;2022-08-19T10:41:58;4.63;;;4.33;;
13406;SDS011;6774;48.208;10.766;2022-08-19T10:44:26;4.60;;;4.20;;
13406;SDS011;6774;48.208;10.766;2022-08-19T10:46:58;4.67;;;4.37;;
13406;SDS011;6774;48.208;10.766;2022-08-19T10:49:27;5.90;;;5.50;;
13406;SDS011;6774;48.208;10.766;2022-08-19T10:51:55;5.00;;;4.70;;
13406;SDS011;6774;48.208;10.766;2022-08-19T10:54:46;5.03;;;4.73;;
13406;SDS011;6774;48.208;10.766;2022-08-19T10:57:34;5.60;;;5.20;;
13406;SDS011;6774;48.208;10.766;2022-08-19T11:00:22;6.63;;;6.20;;
13406;SDS011;6774;48.208;10.766;2022-08-19T11:02:52;8.13;;;7.50;;
13406;SDS011;6774;48.208;10.766;2022-08-19T11:05:21;7.60;;;6.83;;
13406;SDS011;6774;48.208;10.766;2022-08-19T11:07:50;8.87;;;8.17;;
13406;SDS011;6774;48.208;10.766;2022-08-19T11:10:18;9.17;;;8.47;;
13406;SDS011;6774;48.208;10.766;2022-08-19T11:12:48;7.03;;;6.47;;
13406;SDS011;6774;48.208;10.766;2022-08-19T11:15:19;8.67;;;7.90;;
13406;SDS011;6774;48.208;10.766;2022-08-19T11:17:46;7.23;;;6.73;;
13406;SDS011;6774;48.208;10.766;2022-08-19T11:20:14;8.03;;;7.37;;
13406;SDS011;6774;48.208;10.766;2022-08-19T11:22:43;8.83;;;8.03;;
13406;SDS011;6774;48.208;10.766;2022-08-19T11:25:13;9.93;;;8.47;;
13406;SDS011;6774;48.208;10.766;2022-08-19T11:27:41;9.93;;;9.07;;
13406;SDS011;6774;48.208;10.766;2022-08-19T11:30:10;10.33;;;9.47;;
13406;SDS011;6774;48.208;10.766;2022-08-19T11:32:40;10.53;;;9.83;;
13406;SDS011;6774;48.208;10.766;2022-08-19T11:35:14;9.83;;;9.03;;
13406;SDS011;6774;48.208;10.766;2022-08-19T11:37:44;9.27;;;8.53;;
13406;SDS011;6774;48.208;10.766;2022-08-19T11:40:12;9.60;;;8.63;;
13406;SDS011;6774;48.208;10.766;2022-08-19T11:42:39;7.73;;;7.07;;
13406;SDS011;6774;48.208;10.766;2022-08-19T11:45:22;8.33;;;7.83;;
13406;SDS011;6774;48.208;10.766;2022-08-19T11:47:51;8.60;;;7.90;;
13406;SDS011;6774;48.208;10.766;2022-08-19T11:50:20;7.43;;;6.83;;
13406;SDS011;6774;48.208;10.766;2022-08-19T11:52:51;7.63;;;7.03;;
13406;SDS011;6774;48.208;10.766;2022-08-19T11:55:21;7.10;;;6.60;;
13406;SDS011;6774;48.208;10.766;2022-08-19T11:57:49;4.90;;;4.60;;
13406;SDS011;6774;48.208;10.766;2022-08-19T12:00:18;5.73;;;5.27;;
13406;SDS011;6774;48.208;10.766;2022-08-19T12:02:47;5.27;;;4.97;;
13406;SDS011;6774;48.208;10.766;2022-08-19T12:05:14;4.27;;;3.97;;
13406;SDS011;6774;48.208;10.766;2022-08-19T12:07:42;3.47;;;3.27;;
13406;SDS011;6774;48.208;10.766;2022-08-19T12:10:11;2.93;;;2.73;;
13406;SDS011;6774;48.208;10.766;2022-08-19T12:12:44;4.30;;;4.10;;
13406;SDS011;6774;48.208;10.766;2022-08-19T12:15:22;4.23;;;3.97;;
13406;SDS011;6774;48.208;10.766;2022-08-19T12:17:49;4.47;;;4.17;;
13406;SDS011;6774;48.208;10.766;2022-08-19T12:20:18;3.93;;;3.67;;
13406;SDS011;6774;48.208;10.766;2022-08-19T12:22:46;4.13;;;3.93;;
13406;SDS011;6774;48.208;10.766;2022-08-19T12:25:16;3.40;;;3.10;;
13406;SDS011;6774;48.208;10.766;2022-08-19T12:27:47;5.20;;;5.00;;
13406;SDS011;6774;48.208;10.766;2022-08-19T12:30:23;4.03;;;3.83;;
13406;SDS011;6774;48.208;10.766;2022-08-19T12:32:52;3.53;;;3.33;;
13406;SDS011;6774;48.208;10.766;2022-08-19T12:35:20;3.00;;;2.90;;
13406;SDS011;6774;48.208;10.766;2022-08-19T12:37:48;4.20;;;3.90;;
13406;SDS011;6774;48.208;10.766;2022-08-19T12:40:24;4.70;;;4.40;;
13406;SDS011;6774;48.208;10.766;2022-08-19T12:42:52;3.43;;;3.23;;
13406;SDS011;6774;48.208;10.766;2022-08-19T12:45:20;3.07;;;2.90;;
13406;SDS011;6774;48.208;10.766;2022-08-19T12:47:48;3.57;;;3.27;;
13406;SDS011;6774;48.208;10.766;2022-08-19T12:50:20;3.90;;;3.70;;
13406;SDS011;6774;48.208;10.766;2022-08-19T12:52:48;3.00;;;2.90;;
13406;SDS011;6774;48.208;10.766;2022-08-19T12:55:16;3.17;;;2.97;;
13406;SDS011;6774;48.208;10.766;2022-08-19T12:57:46;2.70;;;2.50;;
13406;SDS011;6774;48.208;10.766;2022-08-19T13:00:16;3.17;;;2.87;;
13406;SDS011;6774;48.208;10.766;2022-08-19T13:02:47;2.00;;;1.90;;
13406;SDS011;6774;48.208;10.766;2022-08-19T13:05:19;3.40;;;3.10;;
13406;SDS011;6774;48.208;10.766;2022-08-19T13:07:51;2.43;;;2.33;;
13406;SDS011;6774;48.208;10.766;2022-08-19T13:10:23;2.07;;;1.97;;
13406;SDS011;6774;48.208;10.766;2022-08-19T13:12:54;2.27;;;2.17;;
13406;SDS011;6774;48.208;10.766;2022-08-19T13:15:23;2.80;;;2.33;;
13406;SDS011;6774;48.208;10.766;2022-08-19T13:17:51;1.70;;;1.60;;
13406;SDS011;6774;48.208;10.766;2022-08-19T13:20:23;2.23;;;2.13;;
13406;SDS011;6774;48.208;10.766;2022-08-19T13:22:52;3.27;;;2.20;;
13406;SDS011;6774;48.208;10.766;2022-08-19T13:25:21;3.40;;;3.20;;
13406;SDS011;6774;48.208;10.766;2022-08-19T13:27:48;3.10;;;2.90;;
13406;SDS011;6774;48.208;10.766;2022-08-19T13:30:19;2.47;;;2.33;;
13406;SDS011;6774;48.208;10.766;2022-08-19T13:33:05;2.93;;;2.83;;
13406;SDS011;6774;48.208;10.766;2022-08-19T13:35:42;3.13;;;2.93;;
13406;SDS011;6774;48.208;10.766;2022-08-19T13:38:13;3.47;;;3.27;;
13406;SDS011;6774;48.208;10.766;2022-08-19T13:40:42;3.27;;;3.17;;
13406;SDS011;6774;48.208;10.766;2022-08-19T13:43:10;3.97;;;3.77;;
13406;SDS011;6774;48.208;10.766;2022-08-19T13:45:50;4.30;;;4.10;;
13406;SDS011;6774;48.208;10.766;2022-08-19T13:48:20;3.73;;;3.63;;
13406;SDS011;6774;48.208;10.766;2022-08-19T13:50:48;4.33;;;4.13;;
13406;SDS011;6774;48.208;10.766;2022-08-19T13:53:16;4.00;;;3.80;;
13406;SDS011;6774;48.208;10.766;2022-08-19T13:55:45;4.43;;;4.13;;
13406;SDS011;6774;48.208;10.766;2022-08-19T13:58:12;4.20;;;4.00;;
13406;SDS011;6774;48.208;10.766;2022-08-19T14:00:41;4.37;;;4.17;;
13406;SDS011;6774;48.208;10.766;2022-08-19T14:03:12;4.37;;;4.17;;
13406;SDS011;6774;48.208;10.766;2022-08-19T14:05:41;4.77;;;4.50;;
13406;SDS011;6774;48.208;10.766;2022-08-19T14:08:08;3.47;;;3.27;;
13406;SDS011;6774;48.208;10.766;2022-08-19T14:10:40;2.50;;;2.40;;
13406;SDS011;6774;48.208;10.766;2022-08-19T14:13:13;2.90;;;2.80;;
13406;SDS011;6774;48.208;10.766;2022-08-19T14:15:43;2.80;;;2.70;;
13406;SDS011;6774;48.208;10.766;2022-08-19T14:18:13;3.53;;;3.33;;
13406;SDS011;6774;48.208;10.766;2022-08-19T14:20:41;2.53;;;2.43;;
13406;SDS011;6774;48.208;10.766;2022-08-19T14:23:09;2.30;;;2.20;;
13406;SDS011;6774;48.208;10.766;2022-08-19T14:25:38;1.30;;;1.30;;
13406;SDS011;6774;48.208;10.766;2022-08-19T14:28:06;1.90;;;1.80;;
13406;SDS011;6774;48.208;10.766;2022-08-19T14:30:35;1.77;;;1.67;;
13406;SDS011;6774;48.208;10.766;2022-08-19T14:33:05;1.47;;;1.37;;
13406;SDS011;6774;48.208;10.766;2022-08-19T14:35:36;1.57;;;1.47;;
13406;SDS011;6774;48.208;10.766;2022-08-19T14:38:05;0.87;;;0.87;;
13406;SDS011;6774;48.208;10.766;2022-08-19T14:40:34;1.10;;;1.10;;
13406;SDS011;6774;48.208;10.766;2022-08-19T14:43:03;1.37;;;1.37;;
13406;SDS011;6774;48.208;10.766;2022-08-19T14:45:32;1.43;;;1.43;;
13406;SDS011;6774;48.208;10.766;2022-08-19T14:48:02;0.70;;;0.70;;
13406;SDS011;6774;48.208;10.766;2022-08-19T14:50:30;1.57;;;1.47;;
13406;SDS011;6774;48.208;10.766;2022-08-19T14:53:00;1.93;;;1.83;;
13406;SDS011;6774;48.208;10.766;2022-08-19T14:55:40;1.37;;;1.27;;
13406;SDS011;6774;48.208;10.766;2022-08-19T14:58:09;0.83;;;0.83;;